Terminal Aerodrome Forecast
Issued by NWS

Home | Current Version | Previous Version | Text Only | Print | Product List | Glossary On
Versions: 1 2 3 4 5 6 7 8 9 10 11 12 13 14 15 16 17 18 19 20 21
000
FTUS46 KSEW 221100
TAFHQM
TAF
KHQM 221121Z 2212/2312 27006KT 5SM BR SCT030
      TEMPO 2212/2216 BKN030
     FM221600 VRB03KT 4SM BR OVC020
     FM222000 08006KT P6SM SCT025 BKN120
     FM230600 07008KT P6SM BKN050 OVC100
     FM231000 07008KT P6SM -RA BKN035 OVC050=

USA.gov is the U.S. government's official web portal to all federal, state and local government web resources and services.